Time;durP1;ratioP1;P1;durP2;ratioP2;P2;SDS_P1;SDS_P2;PMS_P1;PMS_P2;Temp;Humidity;BMP_temperature;BMP_pressure;BME280_temperature;BME280_humidity;BME280_pressure;Samples;Min_cycle;Max_cycle;Signal;HPM_P1;HPM_P2
2023/12/12 00:01:57;;;;;;;12.63;11.88;;;;;;;;;;5082042;28;20040;-73
2023/12/12 00:04:29;;;;;;;13.00;12.07;;;;;;;;;;5081892;28;20055;-75
2023/12/12 00:06:58;;;;;;;13.30;12.57;;;;;;;;;;5082199;28;20054;-73
2023/12/12 00:09:29;;;;;;;11.15;10.35;;;;;;;;;;5081992;28;20522;-73
2023/12/12 00:12:00;;;;;;;11.35;10.65;;;;;;;;;;5081560;28;20052;-74
2023/12/12 00:14:30;;;;;;;10.57;8.65;;;;;;;;;;5081658;28;20422;-73
2023/12/12 00:17:01;;;;;;;8.43;7.93;;;;;;;;;;5081765;28;20595;-73
2023/12/12 00:19:32;;;;;;;32.88;30.75;;;;;;;;;;5083194;28;20497;-74
2023/12/12 00:22:03;;;;;;;12.20;11.32;;;;;;;;;;5081895;28;20054;-75
2023/12/12 00:24:33;;;;;;;11.13;10.32;;;;;;;;;;5081279;28;20054;-73
2023/12/12 00:27:03;;;;;;;13.65;12.75;;;;;;;;;;5082039;28;20051;-75
2023/12/12 00:29:38;;;;;;;11.82;10.55;;;;;;;;;;5083032;28;20039;-73
2023/12/12 00:32:09;;;;;;;11.48;10.77;;;;;;;;;;5081927;28;20051;-73
2023/12/12 00:34:40;;;;;;;13.73;12.90;;;;;;;;;;5081448;28;20403;-73
2023/12/12 00:37:11;;;;;;;10.90;10.23;;;;;;;;;;5081572;28;20055;-73
2023/12/12 00:39:41;;;;;;;10.68;9.98;;;;;;;;;;5082192;28;20052;-72
2023/12/12 00:42:12;;;;;;;11.80;10.98;;;;;;;;;;5081714;28;20047;-72
2023/12/12 00:44:43;;;;;;;11.80;11.10;;;;;;;;;;5081368;28;20063;-73
2023/12/12 00:47:14;;;;;;;8.15;7.55;;;;;;;;;;5062774;28;20419;-72
2023/12/12 00:49:43;;;;;;;11.63;10.65;;;;;;;;;;5081824;28;20055;-73
2023/12/12 00:52:14;;;;;;;9.27;8.70;;;;;;;;;;5080080;28;20529;-73
2023/12/12 00:54:45;;;;;;;12.15;11.20;;;;;;;;;;5079763;28;20047;-72
2023/12/12 00:57:15;;;;;;;13.95;13.13;;;;;;;;;;5080129;28;20051;-73
2023/12/12 00:59:46;;;;;;;32.08;30.02;;;;;;;;;;5080421;28;20059;-72
2023/12/12 01:02:17;;;;;;;12.10;11.18;;;;;;;;;;5080396;28;20047;-73
2023/12/12 01:04:47;;;;;;;11.25;10.48;;;;;;;;;;5080419;28;20052;-72
2023/12/12 01:07:18;;;;;;;10.05;9.23;;;;;;;;;;5081189;28;20052;-72
2023/12/12 01:09:49;;;;;;;12.18;11.32;;;;;;;;;;5081459;28;20055;-72
2023/12/12 01:12:19;;;;;;;10.38;9.77;;;;;;;;;;5081796;28;20051;-72
2023/12/12 01:14:49;;;;;;;11.77;11.13;;;;;;;;;;5081537;28;20059;-72
2023/12/12 01:17:19;;;;;;;10.55;9.93;;;;;;;;;;5081847;28;20059;-72
2023/12/12 01:19:50;;;;;;;10.50;9.70;;;;;;;;;;5081103;28;20051;-72
2023/12/12 01:22:20;;;;;;;10.65;9.80;;;;;;;;;;5080964;28;20075;-72
2023/12/12 01:24:51;;;;;;;11.90;11.20;;;;;;;;;;5081166;28;20048;-73
2023/12/12 01:27:21;;;;;;;11.13;10.20;;;;;;;;;;5083070;28;20036;-72
2023/12/12 01:29:51;;;;;;;11.35;10.65;;;;;;;;;;5080727;28;20530;-72
2023/12/12 01:32:22;;;;;;;9.77;9.27;;;;;;;;;;5082154;28;20494;-72
2023/12/12 01:34:53;;;;;;;9.52;8.93;;;;;;;;;;5082086;28;20044;-72
2023/12/12 01:37:22;;;;;;;10.25;9.65;;;;;;;;;;5085430;28;20425;-73
2023/12/12 01:39:52;;;;;;;13.30;12.50;;;;;;;;;;5085003;28;20047;-73
2023/12/12 01:42:24;;;;;;;12.18;11.07;;;;;;;;;;5084332;28;20044;-72
2023/12/12 01:44:55;;;;;;;13.70;12.85;;;;;;;;;;5084384;28;20048;-72
2023/12/12 01:47:27;;;;;;;11.20;10.57;;;;;;;;;;5084850;28;20048;-72
2023/12/12 01:49:59;;;;;;;10.93;10.25;;;;;;;;;;5084474;28;20044;-78
2023/12/12 01:52:29;;;;;;;11.43;10.57;;;;;;;;;;5085095;28;20059;-72
2023/12/12 01:55:00;;;;;;;12.77;12.07;;;;;;;;;;5084094;28;20044;-73
2023/12/12 01:57:30;;;;;;;10.57;9.98;;;;;;;;;;5084189;28;20044;-72
2023/12/12 02:00:02;;;;;;;10.93;10.32;;;;;;;;;;5084399;28;20410;-78
2023/12/12 02:02:39;;;;;;;11.35;10.32;;;;;;;;;;5089331;28;20063;-73
2023/12/12 02:05:10;;;;;;;11.75;10.85;;;;;;;;;;5084823;28;20075;-72
2023/12/12 02:07:41;;;;;;;9.82;9.15;;;;;;;;;;5084651;28;20059;-73
2023/12/12 02:10:11;;;;;;;9.52;8.93;;;;;;;;;;5084293;28;20059;-73
2023/12/12 02:12:42;;;;;;;10.55;9.77;;;;;;;;;;5084471;28;20573;-72
2023/12/12 02:15:12;;;;;;;11.98;11.27;;;;;;;;;;5084388;28;20054;-72
2023/12/12 02:17:42;;;;;;;9.05;8.32;;;;;;;;;;5084904;28;20825;-73
2023/12/12 02:20:13;;;;;;;11.07;10.48;;;;;;;;;;5083141;28;20071;-73
2023/12/12 02:22:44;;;;;;;10.40;9.73;;;;;;;;;;5084891;28;20044;-72
2023/12/12 02:25:17;;;;;;;11.40;10.70;;;;;;;;;;5084930;28;20052;-72
2023/12/12 02:27:48;;;;;;;12.88;11.98;;;;;;;;;;5084147;28;20518;-72
2023/12/12 02:30:19;;;;;;;12.27;11.57;;;;;;;;;;5083790;28;20040;-72
2023/12/12 02:32:50;;;;;;;10.82;10.02;;;;;;;;;;5084006;28;20032;-72
2023/12/12 02:35:20;;;;;;;11.48;10.55;;;;;;;;;;5083794;28;20047;-73
2023/12/12 02:37:51;;;;;;;10.55;9.90;;;;;;;;;;5084576;28;20723;-72
2023/12/12 02:40:21;;;;;;;11.45;10.75;;;;;;;;;;5083788;28;20498;-72
2023/12/12 02:42:53;;;;;;;14.10;13.07;;;;;;;;;;5084063;28;20044;-73
2023/12/12 02:45:22;;;;;;;11.82;11.10;;;;;;;;;;5083625;28;20044;-73
2023/12/12 02:47:53;;;;;;;13.30;12.55;;;;;;;;;;5086473;28;20039;-72
2023/12/12 02:50:24;;;;;;;12.23;11.52;;;;;;;;;;5084338;28;20051;-72
2023/12/12 02:52:55;;;;;;;12.18;11.50;;;;;;;;;;5083812;28;20518;-73
2023/12/12 02:55:25;;;;;;;12.27;11.30;;;;;;;;;;5083458;28;20058;-72
2023/12/12 02:57:57;;;;;;;11.07;10.27;;;;;;;;;;5084070;28;20036;-73
2023/12/12 03:00:28;;;;;;;12.82;11.98;;;;;;;;;;5083805;28;20056;-72
2023/12/12 03:02:58;;;;;;;12.30;11.50;;;;;;;;;;5082277;28;20064;-73
2023/12/12 03:05:28;;;;;;;12.32;11.63;;;;;;;;;;5083402;28;20063;-72
2023/12/12 03:07:58;;;;;;;11.55;10.82;;;;;;;;;;5083302;28;20051;-73
2023/12/12 03:10:28;;;;;;;10.85;10.25;;;;;;;;;;5083526;28;20044;-72
2023/12/12 03:12:58;;;;;;;10.93;10.18;;;;;;;;;;5083358;28;20379;-72
2023/12/12 03:15:29;;;;;;;7.88;7.47;;;;;;;;;;5083251;28;20399;-72
2023/12/12 03:17:59;;;;;;;12.57;11.88;;;;;;;;;;5083466;28;20040;-72
2023/12/12 03:20:29;;;;;;;13.00;12.30;;;;;;;;;;5064706;28;20052;-72
2023/12/12 03:22:58;;;;;;;13.00;12.20;;;;;;;;;;5082905;28;20048;-72
2023/12/12 03:25:30;;;;;;;13.60;12.80;;;;;;;;;;5082482;28;20055;-72
2023/12/12 03:28:00;;;;;;;13.77;12.90;;;;;;;;;;5083020;28;20048;-73
2023/12/12 03:30:30;;;;;;;13.23;12.40;;;;;;;;;;5082736;28;20052;-72
2023/12/12 03:33:00;;;;;;;12.70;11.93;;;;;;;;;;5083170;28;20051;-72
2023/12/12 03:35:30;;;;;;;12.18;11.23;;;;;;;;;;5081080;28;20518;-72
2023/12/12 03:38:01;;;;;;;11.35;10.75;;;;;;;;;;5082878;28;20048;-73
2023/12/12 03:40:31;;;;;;;11.45;10.75;;;;;;;;;;5083030;28;20051;-72
2023/12/12 03:43:01;;;;;;;12.25;11.60;;;;;;;;;;5081948;28;20064;-72
2023/12/12 03:45:31;;;;;;;13.60;12.63;;;;;;;;;;5083026;28;20040;-72
2023/12/12 03:48:01;;;;;;;11.65;10.93;;;;;;;;;;5081989;28;20056;-72
2023/12/12 03:50:34;;;;;;;12.13;11.50;;;;;;;;;;5082414;28;20044;-72
2023/12/12 03:53:03;;;;;;;12.32;11.55;;;;;;;;;;5080889;28;20537;-72
2023/12/12 03:55:34;;;;;;;11.18;10.35;;;;;;;;;;5082688;28;21019;-72
2023/12/12 03:58:05;;;;;;;12.35;11.65;;;;;;;;;;5082237;28;20513;-72
2023/12/12 04:00:35;;;;;;;12.60;11.63;;;;;;;;;;5083103;28;20499;-72
2023/12/12 04:03:05;;;;;;;11.52;10.77;;;;;;;;;;5081056;28;20063;-72
2023/12/12 04:05:35;;;;;;;11.65;10.98;;;;;;;;;;5081190;28;20063;-73
2023/12/12 04:08:08;;;;;;;13.70;12.50;;;;;;;;;;5082631;28;20047;-72
2023/12/12 04:10:39;;;;;;;9.10;8.60;;;;;;;;;;5082433;28;20410;-72
2023/12/12 04:13:08;;;;;;;10.48;9.88;;;;;;;;;;5082542;28;20066;-73
2023/12/12 04:15:39;;;;;;;14.32;13.50;;;;;;;;;;5081911;28;20047;-73
2023/12/12 04:18:08;;;;;;;15.27;14.32;;;;;;;;;;5082064;28;20044;-72
2023/12/12 04:20:39;;;;;;;14.50;13.70;;;;;;;;;;5082048;28;20873;-73
2023/12/12 04:23:09;;;;;;;14.50;13.52;;;;;;;;;;5082034;28;20048;-72
2023/12/12 04:25:39;;;;;;;14.35;13.45;;;;;;;;;;5082465;28;20522;-73
2023/12/12 04:28:11;;;;;;;10.45;9.82;;;;;;;;;;5080533;28;20789;-73
2023/12/12 04:30:41;;;;;;;14.23;13.27;;;;;;;;;;5081859;28;20518;-72
2023/12/12 04:33:11;;;;;;;12.23;11.50;;;;;;;;;;5080083;28;20052;-72
2023/12/12 04:35:42;;;;;;;14.77;13.93;;;;;;;;;;5082436;28;20052;-72
2023/12/12 04:38:12;;;;;;;14.35;13.48;;;;;;;;;;5081589;28;20048;-73
2023/12/12 04:40:42;;;;;;;13.95;13.18;;;;;;;;;;5081190;28;20088;-73
2023/12/12 04:43:13;;;;;;;14.80;13.63;;;;;;;;;;5081908;28;20052;-72
2023/12/12 04:45:44;;;;;;;14.32;13.43;;;;;;;;;;5081575;28;20043;-72
2023/12/12 04:48:15;;;;;;;16.25;14.98;;;;;;;;;;5080932;28;20059;-72
2023/12/12 04:50:45;;;;;;;14.30;13.50;;;;;;;;;;5079525;28;20487;-72
2023/12/12 04:53:17;;;;;;;14.63;13.55;;;;;;;;;;5081036;28;20055;-73
2023/12/12 04:55:47;;;;;;;13.45;12.48;;;;;;;;;;5081383;28;20051;-73
2023/12/12 04:58:18;;;;;;;15.95;15.00;;;;;;;;;;5081061;28;20051;-73
2023/12/12 05:00:48;;;;;;;15.43;14.63;;;;;;;;;;5081394;28;20543;-72
2023/12/12 05:03:18;;;;;;;14.80;14.02;;;;;;;;;;5081006;28;20822;-72
2023/12/12 05:05:49;;;;;;;15.43;14.52;;;;;;;;;;5079402;28;20052;-73
2023/12/12 05:08:20;;;;;;;15.50;14.48;;;;;;;;;;5081864;28;20067;-72
2023/12/12 05:10:50;;;;;;;15.70;14.68;;;;;;;;;;5086509;28;20051;-72
2023/12/12 05:13:20;;;;;;;17.83;16.83;;;;;;;;;;5086136;28;20052;-72
2023/12/12 05:15:51;;;;;;;14.07;13.13;;;;;;;;;;5085511;28;20052;-72
2023/12/12 05:18:22;;;;;;;14.35;13.50;;;;;;;;;;5085280;28;20047;-72
2023/12/12 05:20:52;;;;;;;16.10;15.23;;;;;;;;;;5085028;28;20055;-72
2023/12/12 05:23:25;;;;;;;16.77;15.85;;;;;;;;;;5085038;28;20517;-73
2023/12/12 05:25:56;;;;;;;16.92;15.98;;;;;;;;;;5084458;28;20052;-72
2023/12/12 05:28:27;;;;;;;18.13;17.15;;;;;;;;;;5085074;28;20681;-72
2023/12/12 05:30:57;;;;;;;16.23;15.27;;;;;;;;;;5084814;28;20067;-71
2023/12/12 05:33:27;;;;;;;18.58;17.60;;;;;;;;;;5084703;28;20051;-72
2023/12/12 05:35:58;;;;;;;15.63;14.70;;;;;;;;;;5085163;28;20875;-72
2023/12/12 05:38:28;;;;;;;16.98;15.95;;;;;;;;;;5085347;28;20047;-72
2023/12/12 05:40:58;;;;;;;14.55;13.65;;;;;;;;;;5084112;28;20048;-72
2023/12/12 05:43:28;;;;;;;14.90;14.05;;;;;;;;;;5083669;28;20048;-72
2023/12/12 05:45:59;;;;;;;16.63;15.63;;;;;;;;;;5085010;28;20044;-73
2023/12/12 05:48:30;;;;;;;18.55;17.30;;;;;;;;;;5084776;28;20032;-73
2023/12/12 05:51:01;;;;;;;18.15;16.83;;;;;;;;;;5085149;28;20048;-72
2023/12/12 05:53:31;;;;;;;18.73;17.73;;;;;;;;;;5084478;28;20052;-72
2023/12/12 05:56:01;;;;;;;20.30;19.20;;;;;;;;;;5084504;28;20055;-73
2023/12/12 05:58:32;;;;;;;22.00;20.75;;;;;;;;;;5084724;28;20056;-73
2023/12/12 06:01:04;;;;;;;19.63;18.42;;;;;;;;;;5084569;28;20054;-72
2023/12/12 06:03:35;;;;;;;20.75;19.38;;;;;;;;;;5084204;28;20056;-72
2023/12/12 06:06:08;;;;;;;17.70;16.70;;;;;;;;;;5084314;28;20521;-72
2023/12/12 06:08:38;;;;;;;19.65;18.42;;;;;;;;;;5083308;28;20055;-72
2023/12/12 06:11:08;;;;;;;19.83;18.55;;;;;;;;;;5084316;28;20044;-72
2023/12/12 06:13:40;;;;;;;19.83;18.55;;;;;;;;;;5084805;28;20071;-72
2023/12/12 06:16:11;;;;;;;19.48;17.95;;;;;;;;;;5082421;28;20052;-72
2023/12/12 06:18:44;;;;;;;18.70;17.48;;;;;;;;;;5084280;28;20047;-72
2023/12/12 06:21:14;;;;;;;17.75;16.75;;;;;;;;;;5082073;28;20056;-72
2023/12/12 06:23:44;;;;;;;20.92;19.35;;;;;;;;;;5084253;28;20044;-72
2023/12/12 06:26:15;;;;;;;21.45;20.17;;;;;;;;;;5084320;28;20384;-72
2023/12/12 06:28:45;;;;;;;15.38;14.45;;;;;;;;;;5084335;28;20044;-72
2023/12/12 06:31:15;;;;;;;20.63;19.35;;;;;;;;;;5084287;28;20055;-73
2023/12/12 06:33:45;;;;;;;18.90;17.80;;;;;;;;;;5084332;28;20051;-72
2023/12/12 06:36:16;;;;;;;15.73;14.52;;;;;;;;;;5084119;28;20422;-72
2023/12/12 06:38:47;;;;;;;20.75;19.45;;;;;;;;;;5084601;28;20048;-73
2023/12/12 06:41:18;;;;;;;19.73;18.48;;;;;;;;;;5083477;28;20051;-72
2023/12/12 06:43:47;;;;;;;20.67;19.38;;;;;;;;;;5083894;28;20040;-72
2023/12/12 06:46:18;;;;;;;18.13;16.90;;;;;;;;;;5082424;28;20600;-73
2023/12/12 06:48:49;;;;;;;20.38;19.08;;;;;;;;;;5083758;28;20055;-72
2023/12/12 06:51:20;;;;;;;19.20;18.10;;;;;;;;;;5083838;28;20055;-72
2023/12/12 06:53:52;;;;;;;15.65;14.75;;;;;;;;;;5081206;28;20059;-72
2023/12/12 06:56:23;;;;;;;18.08;16.77;;;;;;;;;;5083620;28;20054;-72
2023/12/12 06:58:53;;;;;;;18.25;17.08;;;;;;;;;;5083462;28;20511;-72
2023/12/12 07:01:24;;;;;;;16.75;15.55;;;;;;;;;;5083657;28;20044;-72
2023/12/12 07:03:53;;;;;;;16.73;15.60;;;;;;;;;;5084060;28;20122;-72
2023/12/12 07:06:25;;;;;;;18.00;16.98;;;;;;;;;;5083974;28;20790;-72
2023/12/12 07:08:55;;;;;;;16.27;15.35;;;;;;;;;;5083625;28;20040;-72
2023/12/12 07:11:26;;;;;;;16.00;14.65;;;;;;;;;;5081522;28;20056;-72
2023/12/12 07:13:57;;;;;;;16.70;15.60;;;;;;;;;;5083340;28;20040;-72
2023/12/12 07:16:28;;;;;;;15.98;14.85;;;;;;;;;;5083250;28;20051;-72
2023/12/12 07:18:58;;;;;;;17.23;16.00;;;;;;;;;;5082666;28;20048;-72
2023/12/12 07:21:30;;;;;;;15.63;14.38;;;;;;;;;;5083216;28;20048;-73
2023/12/12 07:24:00;;;;;;;18.60;17.30;;;;;;;;;;5083294;28;20048;-72
2023/12/12 07:26:33;;;;;;;17.05;16.05;;;;;;;;;;5082607;28;20055;-72
2023/12/12 07:29:05;;;;;;;18.40;17.15;;;;;;;;;;5082814;28;20636;-72
2023/12/12 07:31:36;;;;;;;18.15;16.80;;;;;;;;;;5082866;28;20048;-73
2023/12/12 07:34:06;;;;;;;16.60;14.95;;;;;;;;;;5082300;28;20036;-72
2023/12/12 07:36:39;;;;;;;16.80;15.68;;;;;;;;;;5082803;28;20053;-72
2023/12/12 07:39:09;;;;;;;17.65;16.45;;;;;;;;;;5083226;28;20044;-72
2023/12/12 07:41:40;;;;;;;19.48;17.75;;;;;;;;;;5082153;28;20044;-72
2023/12/12 07:44:10;;;;;;;14.13;12.82;;;;;;;;;;5082066;28;20395;-73
2023/12/12 07:46:40;;;;;;;18.45;17.13;;;;;;;;;;5082749;28;20044;-73
2023/12/12 07:49:10;;;;;;;19.45;18.08;;;;;;;;;;5082312;28;20048;-72
2023/12/12 07:51:42;;;;;;;18.67;17.20;;;;;;;;;;5082182;28;20047;-73
2023/12/12 07:54:13;;;;;;;17.75;16.38;;;;;;;;;;5082212;28;20043;-72
2023/12/12 07:56:43;;;;;;;14.75;13.30;;;;;;;;;;5082543;28;20549;-72
2023/12/12 07:59:13;;;;;;;18.75;17.45;;;;;;;;;;5082530;28;20065;-72
2023/12/12 08:01:44;;;;;;;19.17;17.40;;;;;;;;;;5082886;28;20056;-73
2023/12/12 08:04:15;;;;;;;19.52;18.02;;;;;;;;;;5081852;28;20051;-73
2023/12/12 08:06:45;;;;;;;19.02;17.60;;;;;;;;;;5082562;28;20517;-72
2023/12/12 08:09:15;;;;;;;19.50;17.58;;;;;;;;;;5082441;28;20044;-72
2023/12/12 08:11:45;;;;;;;18.08;16.38;;;;;;;;;;5082194;28;20040;-72
2023/12/12 08:14:15;;;;;;;18.83;17.42;;;;;;;;;;5080521;28;20054;-72
2023/12/12 08:16:47;;;;;;;17.08;15.68;;;;;;;;;;5082838;28;20638;-72
2023/12/12 08:19:17;;;;;;;19.05;17.13;;;;;;;;;;5081714;28;20051;-73
2023/12/12 08:21:48;;;;;;;19.15;17.52;;;;;;;;;;5081706;28;20422;-72
2023/12/12 08:24:18;;;;;;;14.82;13.63;;;;;;;;;;5081642;28;20051;-72
2023/12/12 08:26:48;;;;;;;17.63;16.15;;;;;;;;;;5082068;28;20422;-72
2023/12/12 08:29:18;;;;;;;18.25;16.90;;;;;;;;;;5080363;28;20056;-72
2023/12/12 08:31:49;;;;;;;17.92;16.63;;;;;;;;;;5081269;28;20102;-72
2023/12/12 08:34:19;;;;;;;17.88;16.38;;;;;;;;;;5081624;28;20047;-72
2023/12/12 08:36:50;;;;;;;17.52;16.15;;;;;;;;;;5082608;28;20044;-72
2023/12/12 08:39:20;;;;;;;18.13;16.73;;;;;;;;;;5081670;28;20059;-73
2023/12/12 08:41:50;;;;;;;19.25;17.42;;;;;;;;;;5081200;28;20055;-73
2023/12/12 08:44:20;;;;;;;17.77;16.27;;;;;;;;;;5081083;28;20414;-72
2023/12/12 08:46:50;;;;;;;19.85;18.35;;;;;;;;;;5079810;28;20055;-73
2023/12/12 08:49:20;;;;;;;18.27;16.63;;;;;;;;;;5080105;28;20063;-73
2023/12/12 08:51:51;;;;;;;17.95;16.23;;;;;;;;;;5081767;28;20039;-73
2023/12/12 08:54:21;;;;;;;17.70;16.17;;;;;;;;;;5081729;28;20056;-73
2023/12/12 08:56:52;;;;;;;17.95;16.55;;;;;;;;;;5081585;28;20052;-71
2023/12/12 08:59:22;;;;;;;18.33;17.02;;;;;;;;;;5081599;28;20055;-72
2023/12/12 09:01:52;;;;;;;17.40;16.15;;;;;;;;;;5081301;28;20044;-73
2023/12/12 09:04:25;;;;;;;19.75;18.08;;;;;;;;;;5080991;28;20052;-73
2023/12/12 09:06:56;;;;;;;17.50;16.20;;;;;;;;;;5081469;28;20155;-72
2023/12/12 09:09:27;;;;;;;18.23;16.80;;;;;;;;;;5081541;28;20048;-72
2023/12/12 09:11:58;;;;;;;17.75;16.15;;;;;;;;;;5081068;28;20062;-72
2023/12/12 09:14:29;;;;;;;20.08;18.35;;;;;;;;;;5079941;28;20040;-72
2023/12/12 09:16:59;;;;;;;23.65;18.30;;;;;;;;;;5081770;28;20040;-72
2023/12/12 09:19:29;;;;;;;19.50;17.83;;;;;;;;;;5081102;28;20055;-80
2023/12/12 09:22:00;;;;;;;20.77;19.27;;;;;;;;;;5079963;28;20490;-72
2023/12/12 09:24:30;;;;;;;19.60;18.02;;;;;;;;;;5081366;28;20897;-72
2023/12/12 09:27:00;;;;;;;16.85;15.25;;;;;;;;;;5081441;28;20047;-73
2023/12/12 09:29:31;;;;;;;19.10;17.52;;;;;;;;;;5081653;28;20071;-72
2023/12/12 09:32:01;;;;;;;18.33;16.60;;;;;;;;;;5081048;28;20048;-72
2023/12/12 09:34:31;;;;;;;18.73;17.23;;;;;;;;;;5081454;28;20058;-75
2023/12/12 09:37:00;;;;;;;21.17;19.50;;;;;;;;;;5080780;28;20055;-73
2023/12/12 09:39:32;;;;;;;19.10;17.45;;;;;;;;;;5081016;28;20503;-72
2023/12/12 09:42:08;;;;;;;18.52;17.02;;;;;;;;;;5081046;28;20059;-73
2023/12/12 09:44:43;;;;;;;17.90;16.38;;;;;;;;;;5080467;28;20051;-72
2023/12/12 09:47:14;;;;;;;14.50;13.10;;;;;;;;;;5080958;28;21179;-72
2023/12/12 09:49:50;;;;;;;23.55;18.70;;;;;;;;;;5081916;28;20826;-72
2023/12/12 09:52:20;;;;;;;;;;;;;;;;;;5081448;28;20521;-72
2023/12/12 09:54:52;;;;;;;20.33;18.73;;;;;;;;;;5081113;28;19923;-73
2023/12/12 09:57:23;;;;;;;19.27;17.50;;;;;;;;;;5084220;28;20114;-72
2023/12/12 09:59:53;;;;;;;18.38;16.73;;;;;;;;;;5084865;28;20044;-72
2023/12/12 10:02:33;;;;;;;17.35;15.55;;;;;;;;;;5083564;28;20048;-73
2023/12/12 10:05:04;;;;;;;13.93;12.35;;;;;;;;;;5085902;28;20402;-73
2023/12/12 10:07:36;;;;;;;17.83;16.40;;;;;;;;;;5084328;28;20048;-73
2023/12/12 10:10:11;;;;;;;18.33;16.73;;;;;;;;;;5083932;28;20051;-75
2023/12/12 10:12:43;;;;;;;19.23;17.75;;;;;;;;;;5083446;28;20051;-73
2023/12/12 10:15:25;;;;;;;13.73;12.70;;;;;;;;;;5084363;28;20075;-72
2023/12/12 10:17:59;;;;;;;15.45;14.05;;;;;;;;;;5084318;28;20048;-72
2023/12/12 10:20:31;;;;;;;17.33;15.85;;;;;;;;;;5084168;28;20048;-79
2023/12/12 10:23:05;;;;;;;13.32;12.00;;;;;;;;;;5082270;28;20074;-73
2023/12/12 10:25:36;;;;;;;12.63;11.35;;;;;;;;;;5084122;28;20040;-72
2023/12/12 10:28:07;;;;;;;13.20;12.02;;;;;;;;;;5083986;28;20052;-72
2023/12/12 10:30:37;;;;;;;14.13;12.05;;;;;;;;;;5083669;28;20048;-73
2023/12/12 10:33:14;;;;;;;13.82;12.27;;;;;;;;;;5084012;28;20048;-74
2023/12/12 10:35:45;;;;;;;15.20;13.77;;;;;;;;;;5084590;28;20048;-72
2023/12/12 10:38:15;;;;;;;13.48;12.25;;;;;;;;;;5084360;28;20075;-73
2023/12/12 10:40:46;;;;;;;11.73;10.82;;;;;;;;;;5082440;28;20059;-72
2023/12/12 10:43:18;;;;;;;16.65;15.50;;;;;;;;;;5083443;28;20673;-72
2023/12/12 10:45:50;;;;;;;14.15;13.15;;;;;;;;;;5084134;28;20431;-75
2023/12/12 10:48:24;;;;;;;15.02;13.82;;;;;;;;;;5084151;28;20062;-75
2023/12/12 10:50:58;;;;;;;19.48;18.10;;;;;;;;;;5084063;28;20497;-77
2023/12/12 10:53:31;;;;;;;12.40;11.20;;;;;;;;;;5082858;28;20514;-72
2023/12/12 10:56:02;;;;;;;12.50;11.50;;;;;;;;;;5084209;28;20048;-73
2023/12/12 10:58:35;;;;;;;12.73;11.70;;;;;;;;;;5083890;28;20044;-72
2023/12/12 11:01:15;;;;;;;17.67;13.30;;;;;;;;;;5082073;28;20044;-72
2023/12/12 11:03:48;;;;;;;17.85;16.30;;;;;;;;;;5084071;28;20063;-73
2023/12/12 11:06:20;;;;;;;10.70;9.73;;;;;;;;;;5083299;28;20382;-74
2023/12/12 11:08:52;;;;;;;16.08;14.55;;;;;;;;;;5083690;28;20071;-76
2023/12/12 11:11:23;;;;;;;16.20;15.05;;;;;;;;;;5081910;28;20052;-73
2023/12/12 11:13:54;;;;;;;18.92;14.95;;;;;;;;;;5083109;28;20055;-73
2023/12/12 11:16:27;;;;;;;15.60;14.13;;;;;;;;;;5083187;28;20058;-73
2023/12/12 11:19:00;;;;;;;14.05;12.90;;;;;;;;;;5083069;28;20055;-73
2023/12/12 11:21:44;;;;;;;20.75;19.05;;;;;;;;;;5082295;28;20071;-74
2023/12/12 11:24:16;;;;;;;12.90;12.00;;;;;;;;;;5082945;28;20407;-74
2023/12/12 11:26:49;;;;;;;15.25;14.13;;;;;;;;;;5082934;28;20063;-75
2023/12/12 11:29:25;;;;;;;16.45;15.23;;;;;;;;;;5082409;28;20522;-76
2023/12/12 11:32:00;;;;;;;;;;;;;;;;;;5082112;28;20062;-73
2023/12/12 11:34:38;;;;;;;16.33;14.88;;;;;;;;;;5081998;28;20301;-74
2023/12/12 11:37:09;;;;;;;18.05;16.70;;;;;;;;;;5081515;28;20126;-74
2023/12/12 11:39:44;;;;;;;11.68;10.77;;;;;;;;;;5082144;28;20048;-72
2023/12/12 11:42:17;;;;;;;11.52;10.52;;;;;;;;;;5082683;28;20044;-73
2023/12/12 11:44:54;;;;;;;10.93;10.00;;;;;;;;;;5082679;28;20048;-74
2023/12/12 11:47:32;;;;;;;12.00;10.90;;;;;;;;;;5082309;28;20055;-74
2023/12/12 11:50:16;;;;;;;12.15;11.25;;;;;;;;;;5081829;28;20063;-73
2023/12/12 11:52:48;;;;;;;11.23;10.40;;;;;;;;;;5082478;28;20048;-74
2023/12/12 11:55:28;;;;;;;12.07;11.10;;;;;;;;;;5082337;28;20066;-77
2023/12/12 11:58:05;;;;;;;14.77;11.43;;;;;;;;;;5082485;28;20410;-74
2023/12/12 12:00:40;;;;;;;11.43;10.52;;;;;;;;;;5082551;28;20059;-73
2023/12/12 12:03:11;;;;;;;13.20;12.20;;;;;;;;;;5083054;28;20052;-74
2023/12/12 12:05:41;;;;;;;11.63;10.73;;;;;;;;;;5081878;28;20055;-74
2023/12/12 12:08:11;;;;;;;9.45;8.70;;;;;;;;;;5080033;28;20696;-73
2023/12/12 12:11:05;;;;;;;10.68;9.77;;;;;;;;;;5081880;28;20044;-73
2023/12/12 12:13:40;;;;;;;20.30;18.33;;;;;;;;;;5064510;28;20059;-81
2023/12/12 12:16:11;;;;;;;12.75;11.75;;;;;;;;;;5081312;28;20052;-74
2023/12/12 12:18:43;;;;;;;9.23;8.52;;;;;;;;;;5081413;28;21236;-73
2023/12/12 12:21:13;;;;;;;9.55;8.90;;;;;;;;;;5081674;28;20052;-73
2023/12/12 12:23:43;;;;;;;13.27;12.18;;;;;;;;;;5081963;28;20060;-73
2023/12/12 12:26:14;;;;;;;9.45;8.77;;;;;;;;;;5082135;28;20494;-75
2023/12/12 12:28:45;;;;;;;12.43;11.57;;;;;;;;;;5081640;28;20067;-73
2023/12/12 12:31:28;;;;;;;10.57;9.63;;;;;;;;;;5081935;28;20525;-74
2023/12/12 12:33:59;;;;;;;9.13;8.43;;;;;;;;;;5081771;28;20445;-75
2023/12/12 12:36:38;;;;;;;11.73;10.65;;;;;;;;;;5081949;28;20040;-74
2023/12/12 12:39:12;;;;;;;8.00;7.30;;;;;;;;;;5081765;28;20048;-75
2023/12/12 12:41:46;;;;;;;9.25;8.60;;;;;;;;;;5081019;28;20044;-73
2023/12/12 12:44:16;;;;;;;11.25;7.50;;;;;;;;;;5081654;28;20145;-74
2023/12/12 12:46:49;;;;;;;11.00;10.00;;;;;;;;;;5081753;28;20044;-75
2023/12/12 12:49:21;;;;;;;6.40;5.88;;;;;;;;;;5081731;28;20063;-75
2023/12/12 12:51:51;;;;;;;8.88;8.18;;;;;;;;;;5081655;28;20063;-74
2023/12/12 12:54:22;;;;;;;7.15;6.45;;;;;;;;;;5079425;28;20076;-74
2023/12/12 12:56:52;;;;;;;8.27;7.68;;;;;;;;;;5081275;28;20052;-74
2023/12/12 12:59:22;;;;;;;6.05;4.95;;;;;;;;;;5081501;28;20379;-73
2023/12/12 13:01:53;;;;;;;7.13;6.57;;;;;;;;;;5081730;28;20055;-74
2023/12/12 13:04:24;;;;;;;7.28;6.78;;;;;;;;;;5081107;28;20052;-74
2023/12/12 13:06:54;;;;;;;9.07;8.43;;;;;;;;;;5081259;28;20500;-74
2023/12/12 13:09:25;;;;;;;9.45;8.82;;;;;;;;;;5080004;28;20795;-75
2023/12/12 13:11:56;;;;;;;20.52;13.68;;;;;;;;;;5081673;28;20048;-74
2023/12/12 13:14:26;;;;;;;7.15;6.68;;;;;;;;;;5081686;28;20067;-74
2023/12/12 13:16:57;;;;;;;6.47;5.82;;;;;;;;;;5081022;28;20047;-75
2023/12/12 13:19:28;;;;;;;7.47;6.97;;;;;;;;;;5081267;28;20058;-75
2023/12/12 13:21:59;;;;;;;9.85;6.97;;;;;;;;;;5081022;28;20052;-75
2023/12/12 13:24:30;;;;;;;9.48;8.73;;;;;;;;;;5081685;28;21159;-74
2023/12/12 13:27:02;;;;;;;10.50;9.77;;;;;;;;;;5081347;28;20628;-74
2023/12/12 13:29:33;;;;;;;7.72;7.22;;;;;;;;;;5081063;28;20044;-74
2023/12/12 13:32:04;;;;;;;7.40;6.20;;;;;;;;;;5085208;28;20044;-74
2023/12/12 13:34:34;;;;;;;9.50;8.70;;;;;;;;;;5084288;28;20502;-74
2023/12/12 13:37:04;;;;;;;9.30;8.60;;;;;;;;;;5085366;28;20031;-74
2023/12/12 13:39:35;;;;;;;9.05;8.35;;;;;;;;;;5085229;28;20048;-74
2023/12/12 13:42:07;;;;;;;7.72;7.18;;;;;;;;;;5083092;28;20055;-74
2023/12/12 13:44:37;;;;;;;10.90;9.77;;;;;;;;;;5084971;28;20406;-75
2023/12/12 13:47:07;;;;;;;7.60;7.03;;;;;;;;;;5084790;28;20063;-74
2023/12/12 13:49:38;;;;;;;11.85;10.90;;;;;;;;;;5084249;28;20044;-74
2023/12/12 13:52:11;;;;;;;8.75;8.02;;;;;;;;;;5085480;28;20045;-74
2023/12/12 13:54:41;;;;;;;9.27;7.13;;;;;;;;;;5084424;28;20048;-73
2023/12/12 13:57:11;;;;;;;10.93;10.13;;;;;;;;;;5084379;28;20055;-73
2023/12/12 13:59:43;;;;;;;12.77;11.73;;;;;;;;;;5083272;28;20048;-73
2023/12/12 14:02:14;;;;;;;11.82;10.90;;;;;;;;;;5082447;28;20070;-73
2023/12/12 14:05:03;;;;;;;9.43;8.73;;;;;;;;;;5084299;28;20052;-73
2023/12/12 14:07:35;;;;;;;12.50;11.60;;;;;;;;;;5084823;28;20071;-73
2023/12/12 14:10:06;;;;;;;12.90;11.73;;;;;;;;;;5085278;28;20130;-73
2023/12/12 14:12:37;;;;;;;12.05;9.68;;;;;;;;;;5085211;28;20055;-73
2023/12/12 14:15:09;;;;;;;10.98;10.02;;;;;;;;;;5084563;28;20118;-73
2023/12/12 14:17:39;;;;;;;10.27;9.60;;;;;;;;;;5084171;28;20062;-73
2023/12/12 14:20:09;;;;;;;7.80;7.20;;;;;;;;;;5085087;28;20044;-73
2023/12/12 14:22:41;;;;;;;9.00;8.07;;;;;;;;;;5084827;28;20055;-74
2023/12/12 14:25:13;;;;;;;10.18;8.38;;;;;;;;;;5084629;28;20047;-74
2023/12/12 14:27:44;;;;;;;10.35;9.55;;;;;;;;;;5083861;28;20044;-74
2023/12/12 14:30:14;;;;;;;13.05;11.93;;;;;;;;;;5084411;28;20055;-74
2023/12/12 14:32:44;;;;;;;12.57;11.45;;;;;;;;;;5083901;28;20047;-74
2023/12/12 14:35:15;;;;;;;9.13;8.05;;;;;;;;;;5083977;28;20051;-73
2023/12/12 14:37:47;;;;;;;9.68;8.13;;;;;;;;;;5083936;28;20051;-74
2023/12/12 14:40:18;;;;;;;13.80;12.80;;;;;;;;;;5083642;28;20051;-74
2023/12/12 14:42:49;;;;;;;8.75;7.88;;;;;;;;;;5084134;28;20517;-75
2023/12/12 14:45:19;;;;;;;10.73;10.02;;;;;;;;;;5083912;28;20044;-76